createdAt,value
2018-04-17T00:01:44.117Z,27.80
2018-04-17T00:04:12.931Z,23.87
2018-04-17T00:06:42.565Z,18.20
2018-04-17T00:09:12.119Z,17.87
2018-04-17T00:11:40.848Z,22.60
2018-04-17T00:14:10.838Z,18.90
2018-04-17T00:16:40.390Z,22.63
2018-04-17T00:19:09.157Z,17.37
2018-04-17T00:21:39.138Z,18.03
2018-04-17T00:24:07.888Z,18.93
2018-04-17T00:26:37.005Z,34.23
2018-04-17T00:29:06.829Z,47.27
2018-04-17T00:31:35.643Z,44.73
2018-04-17T00:34:04.555Z,54.90
2018-04-17T00:36:33.553Z,52.80
2018-04-17T00:39:02.429Z,62.50
2018-04-17T00:41:31.461Z,66.03
2018-04-17T00:44:00.462Z,61.77
2018-04-17T00:46:29.828Z,88.43
2018-04-17T00:48:58.638Z,81.00
2018-04-17T00:51:27.461Z,62.20
2018-04-17T00:53:58.731Z,66.77
2018-04-17T00:56:28.447Z,62.23
2018-04-17T00:58:58.122Z,62.03
2018-04-17T01:01:27.845Z,46.83
2018-04-17T01:03:56.717Z,39.33
2018-04-17T01:06:25.590Z,49.43
2018-04-17T01:08:54.485Z,46.10
2018-04-17T01:11:23.353Z,42.90
2018-04-17T01:13:52.094Z,39.07
2018-04-17T01:16:21.084Z,46.57
2018-04-17T01:18:50.084Z,56.80
2018-04-17T01:21:19.833Z,45.93
2018-04-17T01:23:48.675Z,38.33
2018-04-17T01:26:17.820Z,48.27
2018-04-17T01:28:46.802Z,45.97
2018-04-17T01:31:16.829Z,45.77
2018-04-17T01:33:45.616Z,44.90
2018-04-17T01:36:14.715Z,39.57
2018-04-17T01:38:43.462Z,42.17
2018-04-17T01:41:12.301Z,41.87
2018-04-17T01:43:41.285Z,43.77
2018-04-17T01:46:10.225Z,46.00
2018-04-17T01:48:38.973Z,49.40
2018-04-17T01:51:08.055Z,42.63
2018-04-17T01:53:37.051Z,42.00
2018-04-17T01:56:05.761Z,43.30
2018-04-17T01:58:34.671Z,46.07
2018-04-17T02:01:03.464Z,43.90
2018-04-17T02:03:32.288Z,40.17
2018-04-17T02:06:01.973Z,39.63
2018-04-17T02:08:31.523Z,50.23
2018-04-17T02:11:00.296Z,46.93
2018-04-17T02:13:29.377Z,41.53
2018-04-17T02:15:58.529Z,40.37
2018-04-17T02:18:27.628Z,43.57
2018-04-17T02:20:56.919Z,42.80
2018-04-17T02:23:25.759Z,48.27
2018-04-17T02:25:54.903Z,49.47
2018-04-17T02:28:23.632Z,40.47
2018-04-17T02:30:52.425Z,44.23
2018-04-17T02:33:21.191Z,46.50
2018-04-17T02:35:49.963Z,49.47
2018-04-17T02:38:18.895Z,55.47
2018-04-17T02:40:47.588Z,70.87
2018-04-17T02:43:17.190Z,71.03
2018-04-17T02:45:46.118Z,73.33
2018-04-17T02:48:15.672Z,75.17
2018-04-17T02:50:44.489Z,76.90
2018-04-17T02:53:13.394Z,80.50
2018-04-17T02:55:43.059Z,79.90
2018-04-17T02:58:11.816Z,74.17
2018-04-17T03:00:40.869Z,66.43
2018-04-17T03:03:10.076Z,73.77
2018-04-17T03:05:38.901Z,74.73
2018-04-17T03:08:08.605Z,69.30
2018-04-17T03:10:37.347Z,67.80
2018-04-17T03:13:06.129Z,71.03
2018-04-17T03:15:35.788Z,59.73
2018-04-17T03:18:04.691Z,62.53
2018-04-17T03:20:33.508Z,56.73
2018-04-17T03:23:03.309Z,58.53
2018-04-17T03:25:32.317Z,64.80
2018-04-17T03:28:01.115Z,61.37
2018-04-17T03:30:29.870Z,59.73
2018-04-17T03:32:58.749Z,66.20
2018-04-17T03:35:27.553Z,58.70
2018-04-17T03:37:56.409Z,59.60
2018-04-17T03:40:25.319Z,54.17
2018-04-17T03:42:54.089Z,53.33
2018-04-17T03:45:23.176Z,50.57
2018-04-17T03:47:52.189Z,52.93
2018-04-17T03:50:21.438Z,59.13
2018-04-17T03:52:50.892Z,55.33
2018-04-17T03:55:22.563Z,64.50
2018-04-17T03:57:52.020Z,55.17
2018-04-17T04:00:21.815Z,62.60
2018-04-17T04:02:53.245Z,70.80
2018-04-17T04:05:23.461Z,64.47
2018-04-17T04:07:52.551Z,62.07
2018-04-17T04:10:22.076Z,58.97
2018-04-17T04:12:51.829Z,70.13
2018-04-17T04:15:21.695Z,70.93
2018-04-17T04:18:02.408Z,63.00
2018-04-17T04:20:43.074Z,56.00
2018-04-17T04:23:24.171Z,71.77
2018-04-17T04:26:04.913Z,59.40
2018-04-17T04:28:34.033Z,63.23
2018-04-17T04:31:02.906Z,62.17
2018-04-17T04:33:32.046Z,70.27
2018-04-17T04:36:01.704Z,63.10
2018-04-17T04:38:30.547Z,62.43
2018-04-17T04:40:59.411Z,64.23
2018-04-17T04:43:28.282Z,70.87
2018-04-17T04:45:57.147Z,67.47
2018-04-17T04:48:26.047Z,68.23
2018-04-17T04:50:54.928Z,69.27
2018-04-17T04:53:23.748Z,74.17
2018-04-17T04:55:53.834Z,88.37
2018-04-17T04:58:26.572Z,76.13
2018-04-17T05:00:56.021Z,87.13
2018-04-17T05:03:25.767Z,94.63
2018-04-17T05:05:54.494Z,81.53
2018-04-17T05:08:23.278Z,82.30
2018-04-17T05:10:52.059Z,77.03
2018-04-17T05:13:20.760Z,110.67
2018-04-17T05:15:49.936Z,86.47
2018-04-17T05:18:19.081Z,112.20
2018-04-17T05:20:47.841Z,127.17
2018-04-17T05:23:16.800Z,97.03
2018-04-17T05:25:45.712Z,95.97
2018-04-17T05:28:14.464Z,117.10
2018-04-17T05:30:43.529Z,96.43
2018-04-17T05:33:12.351Z,110.40
2018-04-17T05:35:41.180Z,213.87
2018-04-17T05:38:10.131Z,120.90
2018-04-17T05:40:39.116Z,106.40
2018-04-17T05:43:07.913Z,89.00
2018-04-17T05:45:36.735Z,146.00
2018-04-17T05:48:05.526Z,113.07
2018-04-17T05:50:34.313Z,191.33
2018-04-17T05:53:03.163Z,131.27
2018-04-17T05:55:32.107Z,108.90
2018-04-17T05:58:00.961Z,102.30
2018-04-17T06:00:31.161Z,78.80
2018-04-17T06:03:00.276Z,99.23
2018-04-17T06:05:29.351Z,82.07
2018-04-17T06:07:58.287Z,98.73
2018-04-17T06:10:27.024Z,118.00
2018-04-17T06:12:55.817Z,132.57
2018-04-17T06:15:24.616Z,96.47
2018-04-17T06:17:53.482Z,123.13
2018-04-17T06:20:23.028Z,71.97
2018-04-17T06:22:51.874Z,83.00
2018-04-17T06:25:20.693Z,110.97
2018-04-17T06:27:49.647Z,84.90
2018-04-17T06:30:18.648Z,67.80
2018-04-17T06:32:47.497Z,81.10
2018-04-17T06:35:16.476Z,71.20
2018-04-17T06:37:45.387Z,63.90
2018-04-17T06:40:14.357Z,65.83
2018-04-17T06:42:44.223Z,62.70
2018-04-17T06:45:12.902Z,70.00
2018-04-17T06:47:42.085Z,69.87
2018-04-17T06:50:10.878Z,71.93
2018-04-17T06:52:40.572Z,71.30
2018-04-17T06:55:09.464Z,80.27
2018-04-17T06:57:38.229Z,62.77
2018-04-17T07:00:07.864Z,64.47
2018-04-17T07:02:37.247Z,65.00
2018-04-17T07:05:06.059Z,82.17
2018-04-17T07:07:34.856Z,71.83
2018-04-17T07:10:04.789Z,76.90
2018-04-17T07:12:33.511Z,81.80
2018-04-17T07:15:02.397Z,77.73
2018-04-17T07:17:31.424Z,79.30
2018-04-17T07:20:00.935Z,73.60
2018-04-17T07:22:30.029Z,70.47
2018-04-17T07:24:59.548Z,78.33
2018-04-17T07:27:29.389Z,75.93
2018-04-17T07:29:58.335Z,70.27
2018-04-17T07:32:27.125Z,77.90
2018-04-17T07:34:55.948Z,80.80
2018-04-17T07:37:25.810Z,71.87
2018-04-17T07:39:55.362Z,77.50
2018-04-17T07:42:25.019Z,79.07
2018-04-17T07:44:54.690Z,76.47
2018-04-17T07:47:31.362Z,75.53
2018-04-17T07:50:00.097Z,100.80
2018-04-17T07:52:29.289Z,77.37
2018-04-17T07:54:58.063Z,82.53
2018-04-17T07:57:26.812Z,84.73
2018-04-17T07:59:55.670Z,144.00
2018-04-17T08:02:24.925Z,89.10
2018-04-17T08:04:53.734Z,80.33
2018-04-17T08:07:22.552Z,118.47
2018-04-17T08:09:52.483Z,100.90
2018-04-17T08:12:21.769Z,80.37
2018-04-17T08:14:50.564Z,87.77
2018-04-17T08:17:19.384Z,85.60
2018-04-17T08:19:48.322Z,81.83
2018-04-17T08:22:17.135Z,77.10
2018-04-17T08:24:46.746Z,92.60
2018-04-17T08:27:16.311Z,74.13
2018-04-17T08:29:45.347Z,99.07
2018-04-17T08:32:14.994Z,80.43
2018-04-17T08:34:43.728Z,79.60
2018-04-17T08:37:12.704Z,74.90
2018-04-17T08:39:41.527Z,130.53
2018-04-17T08:42:10.303Z,88.53
2018-04-17T08:44:39.065Z,77.80
2018-04-17T08:47:08.039Z,73.10
2018-04-17T08:49:36.866Z,72.73
2018-04-17T08:52:05.962Z,85.27
2018-04-17T08:54:34.993Z,71.00
2018-04-17T08:57:04.753Z,70.50
2018-04-17T08:59:33.506Z,74.00
2018-04-17T09:02:02.473Z,72.17
2018-04-17T09:04:32.060Z,79.00
2018-04-17T09:07:00.988Z,75.27
2018-04-17T09:09:29.919Z,85.03
2018-04-17T09:11:58.925Z,84.13
2018-04-17T09:14:28.753Z,75.80
2018-04-17T09:16:57.961Z,89.17
2018-04-17T09:19:27.533Z,140.70
2018-04-17T09:21:56.630Z,89.07
2018-04-17T09:24:25.588Z,102.33
2018-04-17T09:26:54.469Z,94.40
2018-04-17T09:29:23.247Z,112.90
2018-04-17T09:31:52.837Z,130.43
2018-04-17T09:34:22.061Z,357.80
2018-04-17T09:36:51.021Z,264.90
2018-04-17T09:39:19.825Z,97.83
2018-04-17T09:41:48.629Z,90.57
2018-04-17T09:44:18.198Z,77.57
2018-04-17T09:46:47.090Z,76.17
2018-04-17T09:49:15.878Z,71.97
2018-04-17T09:51:44.761Z,78.50
2018-04-17T09:54:14.260Z,49.27
2018-04-17T09:56:43.889Z,55.33
2018-04-17T09:59:22.141Z,58.03
2018-04-17T10:01:55.165Z,58.00
2018-04-17T10:04:23.962Z,62.03
2018-04-17T10:06:52.752Z,45.07
2018-04-17T10:09:21.745Z,55.87
2018-04-17T10:11:50.737Z,83.27
2018-04-17T10:14:20.629Z,52.07
2018-04-17T10:16:49.472Z,39.30
2018-04-17T10:19:18.298Z,47.10
2018-04-17T10:21:47.124Z,61.63
2018-04-17T10:24:16.102Z,59.57
2018-04-17T10:26:44.889Z,48.40
2018-04-17T10:29:14.485Z,35.17
2018-04-17T10:31:43.395Z,79.63
2018-04-17T10:34:12.175Z,55.03
2018-04-17T10:36:41.786Z,62.97
2018-04-17T10:39:10.755Z,58.53
2018-04-17T10:41:39.484Z,65.67
2018-04-17T10:44:08.777Z,75.10
2018-04-17T10:46:38.349Z,87.87
2018-04-17T10:49:07.068Z,71.83
2018-04-17T10:51:36.139Z,53.23
2018-04-17T10:54:04.894Z,61.37
2018-04-17T10:56:33.779Z,54.47
2018-04-17T10:59:02.969Z,43.53
2018-04-17T11:01:32.564Z,40.07
2018-04-17T11:04:01.386Z,36.07
2018-04-17T11:06:30.944Z,39.70
2018-04-17T11:08:59.832Z,43.53
2018-04-17T11:11:28.897Z,48.20
2018-04-17T11:13:57.691Z,43.23
2018-04-17T11:16:26.730Z,48.93
2018-04-17T11:18:56.339Z,50.70
2018-04-17T11:21:25.128Z,46.10
2018-04-17T11:23:53.903Z,47.73
2018-04-17T11:26:22.683Z,43.93
2018-04-17T11:28:51.638Z,39.23
2018-04-17T11:31:20.729Z,46.13
2018-04-17T11:33:49.640Z,41.23
2018-04-17T11:36:18.711Z,42.03
2018-04-17T11:38:47.913Z,44.13
2018-04-17T11:41:17.245Z,42.77
2018-04-17T11:43:46.102Z,48.73
2018-04-17T11:46:15.211Z,47.40
2018-04-17T11:48:44.242Z,42.90
2018-04-17T11:51:13.060Z,44.23
2018-04-17T11:53:41.893Z,48.63
2018-04-17T11:56:10.750Z,43.43
2018-04-17T11:58:39.548Z,42.13
2018-04-17T12:01:08.490Z,40.00
2018-04-17T12:03:37.357Z,45.47
2018-04-17T12:06:06.193Z,37.63
2018-04-17T12:08:36.085Z,39.03
2018-04-17T12:11:04.968Z,41.87
2018-04-17T12:13:33.846Z,57.87
2018-04-17T12:16:02.664Z,42.97
2018-04-17T12:18:32.248Z,40.53
2018-04-17T12:21:01.116Z,41.50
2018-04-17T12:23:29.939Z,41.00
2018-04-17T12:25:58.722Z,38.43
2018-04-17T12:28:27.543Z,49.10
2018-04-17T12:30:56.282Z,39.47
2018-04-17T12:33:25.149Z,33.80
2018-04-17T12:35:53.980Z,38.23
2018-04-17T12:38:23.070Z,31.73
2018-04-17T12:40:51.878Z,37.47
2018-04-17T12:43:20.787Z,36.27
2018-04-17T12:45:49.565Z,38.03
2018-04-17T12:48:18.306Z,37.63
2018-04-17T12:50:47.509Z,39.80
2018-04-17T12:53:16.311Z,30.60
2018-04-17T12:55:45.205Z,40.00
2018-04-17T12:58:14.026Z,41.57
2018-04-17T13:00:43.021Z,39.77
2018-04-17T13:03:12.586Z,40.63
2018-04-17T13:05:41.513Z,37.70
2018-04-17T13:08:10.334Z,37.60
2018-04-17T13:10:39.224Z,31.63
2018-04-17T13:13:08.148Z,37.23
2018-04-17T13:15:37.245Z,50.00
2018-04-17T13:18:05.978Z,38.47
2018-04-17T13:20:35.191Z,32.80
2018-04-17T13:23:04.202Z,39.10
2018-04-17T13:25:33.415Z,33.77
2018-04-17T13:28:03.152Z,42.77
2018-04-17T13:30:32.029Z,29.10
2018-04-17T13:33:00.836Z,44.93
2018-04-17T13:35:29.703Z,40.37
2018-04-17T13:37:58.666Z,35.03
2018-04-17T13:40:27.474Z,37.93
2018-04-17T13:42:56.441Z,37.67
2018-04-17T13:45:25.310Z,34.63
2018-04-17T13:47:54.218Z,39.00
2018-04-17T13:50:23.043Z,40.20
2018-04-17T13:52:51.968Z,37.63
2018-04-17T14:08:21.722Z,37.60
2018-04-17T14:10:50.864Z,39.23
2018-04-17T14:13:20.520Z,40.83
2018-04-17T14:15:49.513Z,37.60
2018-04-17T14:18:18.384Z,34.83
2018-04-17T14:20:47.320Z,38.53
2018-04-17T14:23:16.132Z,38.67
2018-04-17T14:25:45.829Z,38.10
2018-04-17T14:28:15.567Z,31.43
2018-04-17T14:30:44.393Z,45.93
2018-04-17T14:33:13.247Z,44.63
2018-04-17T14:35:42.126Z,46.17
2018-04-17T14:38:11.746Z,41.50
2018-04-17T14:40:40.706Z,41.83
2018-04-17T14:43:09.542Z,46.57
2018-04-17T14:45:39.275Z,50.47
2018-04-17T14:48:08.201Z,50.47
2018-04-17T14:50:37.770Z,56.47
2018-04-17T14:53:06.880Z,50.13
2018-04-17T14:55:36.632Z,46.47
2018-04-17T14:58:05.445Z,51.93
2018-04-17T15:00:34.311Z,57.87
2018-04-17T15:03:03.183Z,47.63
2018-04-17T15:05:32.065Z,54.83
2018-04-17T15:08:00.986Z,46.20
2018-04-17T15:10:29.789Z,47.13
2018-04-17T15:12:59.245Z,50.37
2018-04-17T15:15:28.200Z,38.57
2018-04-17T15:17:57.083Z,37.00
2018-04-17T15:20:26.744Z,39.67
2018-04-17T15:22:57.407Z,33.13
2018-04-17T15:25:26.995Z,42.50
2018-04-17T15:27:55.773Z,42.90
2018-04-17T15:30:25.298Z,45.43
2018-04-17T15:32:54.843Z,40.80
2018-04-17T15:35:24.145Z,38.33
2018-04-17T15:37:52.881Z,42.80
2018-04-17T15:40:21.670Z,50.10
2018-04-17T15:42:50.466Z,38.57
2018-04-17T15:45:19.232Z,43.43
2018-04-17T15:47:48.249Z,42.70
2018-04-17T15:50:17.857Z,47.57
2018-04-17T15:52:46.615Z,42.87
2018-04-17T15:55:15.489Z,46.87
2018-04-17T15:57:44.293Z,35.17
2018-04-17T16:00:13.444Z,45.23
2018-04-17T16:02:42.284Z,37.50
2018-04-17T16:05:11.285Z,43.57
2018-04-17T16:07:40.068Z,44.10
2018-04-17T16:10:08.919Z,36.37
2018-04-17T16:12:38.001Z,39.93
2018-04-17T16:15:06.992Z,36.73
2018-04-17T16:17:35.948Z,45.13
2018-04-17T16:20:04.899Z,42.07
2018-04-17T16:22:33.895Z,49.80
2018-04-17T16:25:03.460Z,41.37
2018-04-17T16:27:33.118Z,42.53
2018-04-17T16:30:02.028Z,48.57
2018-04-17T16:32:30.959Z,81.07
2018-04-17T16:34:59.769Z,90.20
2018-04-17T16:37:28.699Z,56.60
2018-04-17T16:39:58.209Z,91.77
2018-04-17T16:42:26.988Z,71.57
2018-04-17T16:44:55.814Z,46.23
2018-04-17T16:47:25.424Z,83.70
2018-04-17T16:49:55.186Z,49.97
2018-04-17T16:52:23.960Z,56.57
2018-04-17T16:54:52.977Z,58.63
2018-04-17T16:57:22.435Z,110.90
2018-04-17T16:59:51.435Z,82.97
2018-04-17T17:02:20.679Z,77.47
2018-04-17T17:04:49.685Z,78.73
2018-04-17T17:07:18.748Z,89.47
2018-04-17T17:09:47.597Z,80.80
2018-04-17T17:12:16.555Z,64.90
2018-04-17T17:14:45.395Z,72.60
2018-04-17T17:17:15.066Z,61.93
2018-04-17T17:19:43.918Z,52.87
2018-04-17T17:22:12.736Z,56.70
2018-04-17T17:24:41.926Z,66.53
2018-04-17T17:27:10.776Z,69.40
2018-04-17T17:29:40.463Z,52.03
2018-04-17T17:32:09.312Z,38.10
2018-04-17T17:34:39.157Z,41.93
2018-04-17T17:37:07.910Z,38.57
2018-04-17T17:39:36.751Z,39.27
2018-04-17T17:42:05.616Z,51.47
2018-04-17T17:44:35.173Z,49.93
2018-04-17T17:47:03.891Z,50.17
2018-04-17T17:49:32.819Z,54.73
2018-04-17T17:52:02.402Z,52.97
2018-04-17T18:07:32.514Z,56.03
2018-04-17T18:10:02.095Z,64.57
2018-04-17T18:12:31.074Z,55.07
2018-04-17T18:15:00.213Z,59.07
2018-04-17T18:17:29.998Z,55.80
2018-04-17T18:19:58.768Z,56.33
2018-04-17T18:22:27.838Z,57.70
2018-04-17T18:24:56.688Z,48.73
2018-04-17T18:27:25.414Z,51.53
2018-04-17T18:29:54.324Z,50.67
2018-04-17T18:32:23.450Z,54.43
2018-04-17T18:34:52.438Z,54.03
2018-04-17T18:37:22.193Z,54.43
2018-04-17T18:39:51.222Z,52.43
2018-04-17T18:42:20.035Z,52.73
2018-04-17T18:44:48.922Z,49.80
2018-04-17T18:47:17.827Z,55.27
2018-04-17T18:49:47.437Z,47.57
2018-04-17T18:52:16.373Z,47.57
2018-04-17T18:54:45.205Z,37.20
2018-04-17T18:57:14.917Z,39.40
2018-04-17T18:59:44.479Z,45.17
2018-04-17T19:02:13.312Z,42.10
2018-04-17T19:04:42.117Z,42.33
2018-04-17T19:07:11.711Z,45.23
2018-04-17T19:09:41.269Z,42.60
2018-04-17T19:12:12.001Z,38.57
2018-04-17T19:14:41.892Z,43.30
2018-04-17T19:17:10.745Z,48.30
2018-04-17T19:19:39.703Z,41.80
2018-04-17T19:22:14.390Z,44.37
2018-04-17T19:24:57.284Z,39.37
2018-04-17T19:27:26.499Z,39.87
2018-04-17T19:29:57.306Z,43.17
2018-04-17T19:32:26.684Z,40.70
2018-04-17T19:34:55.646Z,41.13
2018-04-17T19:37:25.393Z,37.80
2018-04-17T19:39:54.502Z,30.60
2018-04-17T19:42:23.566Z,38.40
2018-04-17T19:44:53.250Z,31.07
2018-04-17T19:47:22.938Z,34.77
2018-04-17T19:49:51.718Z,36.00
2018-04-17T19:52:20.515Z,32.40
2018-04-17T19:54:49.334Z,31.63
2018-04-17T19:57:18.191Z,36.57
2018-04-17T19:59:48.117Z,35.77
2018-04-17T20:02:16.915Z,35.17
2018-04-17T20:04:45.694Z,44.13
2018-04-17T20:07:15.226Z,33.83
2018-04-17T20:09:45.272Z,32.83
2018-04-17T20:12:14.194Z,37.67
2018-04-17T20:14:43.927Z,37.27
2018-04-17T20:17:12.728Z,33.80
2018-04-17T20:19:41.449Z,33.20
2018-04-17T20:22:10.422Z,44.27
2018-04-17T20:24:39.508Z,43.20
2018-04-17T20:27:08.440Z,37.53
2018-04-17T20:29:37.187Z,43.70
2018-04-17T20:32:06.053Z,40.30
2018-04-17T20:34:34.951Z,46.50
2018-04-17T20:37:04.288Z,40.47
2018-04-17T20:39:33.516Z,41.00
2018-04-17T20:42:03.116Z,44.97
2018-04-17T20:44:31.921Z,41.83
2018-04-17T20:47:00.843Z,41.40
2018-04-17T20:49:29.764Z,46.47
2018-04-17T20:51:58.703Z,51.90
2018-04-17T20:54:28.526Z,50.93
2018-04-17T20:57:01.314Z,48.53
2018-04-17T20:59:34.821Z,46.33
2018-04-17T21:02:03.666Z,51.83
2018-04-17T21:04:32.572Z,61.10
2018-04-17T21:07:01.730Z,61.43
2018-04-17T21:09:32.672Z,67.17
2018-04-17T21:12:02.381Z,89.73
2018-04-17T21:14:31.325Z,79.43
2018-04-17T21:17:01.284Z,73.37
2018-04-17T21:19:30.268Z,67.27
2018-04-17T21:21:59.111Z,59.33
2018-04-17T21:24:30.718Z,67.20
2018-04-17T21:26:59.743Z,65.33
2018-04-17T21:29:28.589Z,64.77
2018-04-17T21:31:58.141Z,73.83
2018-04-17T21:34:26.945Z,86.00
2018-04-17T21:36:55.733Z,100.17
2018-04-17T21:39:25.365Z,83.17
2018-04-17T21:41:54.485Z,81.30
2018-04-17T21:44:23.609Z,73.57
2018-04-17T21:46:52.589Z,70.20
2018-04-17T21:49:21.452Z,60.67
2018-04-17T21:51:50.955Z,62.90
2018-04-17T21:54:19.906Z,66.30
2018-04-17T21:56:49.028Z,62.07
2018-04-17T21:59:17.841Z,57.23
2018-04-17T22:01:47.168Z,66.83
2018-04-17T22:04:15.949Z,59.40
2018-04-17T22:06:44.773Z,59.70
2018-04-17T22:09:14.428Z,60.67
2018-04-17T22:11:43.185Z,59.93
2018-04-17T22:14:11.993Z,66.37
2018-04-17T22:16:41.714Z,64.00
2018-04-17T22:19:11.201Z,67.13
2018-04-17T22:21:40.832Z,68.60
2018-04-17T22:24:09.770Z,65.83
2018-04-17T22:26:38.645Z,70.90
2018-04-17T22:29:07.486Z,68.90
2018-04-17T22:31:36.525Z,79.70
2018-04-17T22:34:05.331Z,65.97
2018-04-17T22:36:34.503Z,70.37
2018-04-17T22:39:03.409Z,69.20
2018-04-17T22:41:32.583Z,76.73
2018-04-17T22:44:01.879Z,72.40
2018-04-17T22:46:30.898Z,73.47
2018-04-17T22:48:59.880Z,77.87
2018-04-17T22:51:29.546Z,69.60
2018-04-17T22:53:58.501Z,69.87
2018-04-17T22:56:28.136Z,80.87
2018-04-17T22:58:56.989Z,84.97
2018-04-17T23:01:25.825Z,96.57
2018-04-17T23:03:54.686Z,107.10
2018-04-17T23:06:23.501Z,103.10
2018-04-17T23:08:53.031Z,84.53
2018-04-17T23:11:21.870Z,75.23
2018-04-17T23:13:51.426Z,72.30
2018-04-17T23:16:20.277Z,82.70
2018-04-17T23:18:49.132Z,67.90
2018-04-17T23:21:17.940Z,77.63
2018-04-17T23:23:46.961Z,77.27
2018-04-17T23:26:16.200Z,71.50
2018-04-17T23:28:45.042Z,75.17
2018-04-17T23:31:13.913Z,71.87
2018-04-17T23:33:42.764Z,79.77
2018-04-17T23:36:11.650Z,85.17
2018-04-17T23:38:40.419Z,85.93
2018-04-17T23:41:10.012Z,85.73
2018-04-17T23:43:38.914Z,84.60
2018-04-17T23:46:07.712Z,86.83
2018-04-17T23:48:36.767Z,94.30
2018-04-17T23:51:06.477Z,95.50
2018-04-17T23:53:35.633Z,96.10
2018-04-17T23:56:04.420Z,103.27
2018-04-17T23:58:34.030Z,104.00
